Time;durP1;ratioP1;P1;durP2;ratioP2;P2;SDS_P1;SDS_P2;PMS_P1;PMS_P2;Temp;Humidity;BMP_temperature;BMP_pressure;BME280_temperature;BME280_humidity;BME280_pressure;Samples;Min_cycle;Max_cycle;Signal;HPM_P1;HPM_P2
2021/10/24 00:00:59;;;;;;;14.82;7.05;;;256.10;2252.80;;;;;;5134278;27;20531;-83
2021/10/24 00:03:25;;;;;;;12.35;6.15;;;256.10;2252.80;;;;;;5134162;27;20082;-75
2021/10/24 00:05:51;;;;;;;14.63;5.90;;;256.10;2252.80;;;;;;5116126;27;20050;-83
2021/10/24 00:08:17;;;;;;;12.15;5.63;;;256.10;2252.80;;;;;;5134103;27;20019;-79
2021/10/24 00:10:43;;;;;;;12.73;6.03;;;256.00;2252.80;;;;;;5115321;27;20023;-83
2021/10/24 00:13:09;;;;;;;14.35;5.72;;;256.10;2252.80;;;;;;5114365;28;20040;-83
2021/10/24 00:15:34;;;;;;;;;;;256.10;2252.80;;;;;;5114315;28;20023;-82
2021/10/24 00:18:00;;;;;;;12.00;4.72;;;256.10;2252.80;;;;;;5095634;28;20379;-80
2021/10/24 00:20:26;;;;;;;;;;;256.10;2252.80;;;;;;5113770;28;20012;-81
2021/10/24 00:22:51;;;;;;;15.80;6.22;;;256.00;2252.80;;;;;;5113486;28;19946;-76
2021/10/24 00:25:17;;;;;;;;;;;256.00;2252.80;;;;;;5095699;28;20350;-82
2021/10/24 00:27:43;;;;;;;9.35;4.53;;;231.30;2252.80;;;;;;5113340;28;19904;-82
2021/10/24 00:30:08;;;;;;;;;;;231.30;2252.80;;;;;;5113561;28;20027;-82
2021/10/24 00:32:34;;;;;;;10.23;4.03;;;231.30;2252.80;;;;;;5095195;28;19957;-77
2021/10/24 00:35:00;;;;;;;;;;;231.30;2252.80;;;;;;5115204;28;20011;-80
2021/10/24 00:37:26;;;;;;;9.65;4.28;;;231.20;2252.80;;;;;;5098997;28;19918;-76
2021/10/24 00:39:52;;;;;;;7.40;4.05;;;231.20;2252.80;;;;;;5117209;28;20079;-78
2021/10/24 00:42:18;;;;;;;9.65;3.83;;;231.20;2252.80;;;;;;5116915;28;20111;-80
2021/10/24 00:44:44;;;;;;;9.82;4.38;;;231.20;2252.80;;;;;;5099298;28;20031;-78
2021/10/24 00:47:10;;;;;;;15.20;4.38;;;231.20;2252.80;;;;;;5117602;28;20091;-82
2021/10/24 00:49:36;;;;;;;11.65;6.07;;;231.20;2252.80;;;;;;5117517;28;20057;-82
2021/10/24 00:52:03;;;;;;;14.68;4.57;;;231.20;2252.80;;;;;;5117175;28;20072;-82
2021/10/24 00:54:29;;;;;;;9.52;4.20;;;231.10;2252.80;;;;;;5117158;28;20016;-81
2021/10/24 00:56:56;;;;;;;12.77;4.28;;;231.20;2252.80;;;;;;5116906;28;20024;-82
2021/10/24 00:59:23;;;;;;;7.18;3.45;;;231.00;2252.80;;;;;;5116793;28;20158;-83
2021/10/24 01:01:49;;;;;;;9.20;4.55;;;231.00;2252.80;;;;;;5116964;28;20038;-77
2021/10/24 01:04:15;;;;;;;;;;;230.90;2252.80;;;;;;5117273;28;20016;-84
2021/10/24 01:06:42;;;;;;;14.00;3.95;;;231.00;2252.80;;;;;;5116940;28;19934;-82
2021/10/24 01:09:15;;;;;;;9.85;4.00;;;230.90;2252.80;;;;;;5116967;28;20031;-77
2021/10/24 01:11:43;;;;;;;12.45;4.00;;;230.90;2252.80;;;;;;5103513;27;20046;-83
2021/10/24 01:14:11;;;;;;;10.13;4.15;;;231.00;2252.80;;;;;;5137006;27;20019;-82
2021/10/24 01:16:38;;;;;;;11.60;4.90;;;231.00;2252.80;;;;;;5137237;27;20019;-82
2021/10/24 01:19:05;;;;;;;10.07;4.93;;;231.00;2252.80;;;;;;5137401;27;20049;-78
2021/10/24 01:21:31;;;;;;;8.55;3.75;;;231.00;2252.80;;;;;;5137219;27;20468;-79
2021/10/24 01:23:57;;;;;;;11.82;5.00;;;230.90;2252.80;;;;;;5137302;27;20101;-82
2021/10/24 01:26:24;;;;;;;10.60;4.07;;;230.90;2252.80;;;;;;5118648;27;20027;-75
2021/10/24 01:28:50;;;;;;;12.55;4.10;;;230.90;2252.80;;;;;;5137034;27;20019;-83
2021/10/24 01:31:16;;;;;;;11.57;4.68;;;230.80;2252.80;;;;;;5118936;27;20011;-83
2021/10/24 01:33:42;;;;;;;11.35;3.55;;;230.90;2252.80;;;;;;5137043;27;20023;-82
2021/10/24 01:36:09;;;;;;;;;;;230.90;2252.80;;;;;;5137342;27;20046;-74
2021/10/24 01:38:36;;;;;;;9.45;4.50;;;230.90;2252.80;;;;;;5136600;27;19907;-77
2021/10/24 01:41:03;;;;;;;11.15;4.57;;;230.90;2252.80;;;;;;5137016;27;20028;-79
2021/10/24 01:43:29;;;;;;;8.73;3.72;;;230.80;2252.80;;;;;;5136370;27;20093;-82
2021/10/24 01:45:56;;;;;;;10.63;4.35;;;230.80;2252.80;;;;;;5136143;27;20044;-77
2021/10/24 01:48:23;;;;;;;12.95;5.60;;;230.90;2252.80;;;;;;5136156;27;20015;-75
2021/10/24 01:50:50;;;;;;;14.75;4.55;;;230.80;2252.80;;;;;;5136456;27;20035;-79
2021/10/24 01:53:27;;;;;;;9.55;4.70;;;230.90;2252.80;;;;;;5136485;27;20023;-82
2021/10/24 01:55:54;;;;;;;15.27;4.15;;;230.90;2252.80;;;;;;5136195;27;20023;-83
2021/10/24 01:58:20;;;;;;;9.65;4.50;;;230.80;2252.80;;;;;;5136139;27;20011;-78
2021/10/24 02:00:48;;;;;;;10.55;3.40;;;230.70;2252.80;;;;;;5136364;27;20072;-77
2021/10/24 02:03:14;;;;;;;14.38;4.47;;;230.70;2252.80;;;;;;5136096;27;20023;-83
2021/10/24 02:05:40;;;;;;;8.65;3.80;;;230.60;2252.80;;;;;;5136310;27;20491;-82
2021/10/24 02:08:06;;;;;;;;;;;230.70;2252.80;;;;;;5118328;27;20023;-82
2021/10/24 02:10:33;;;;;;;11.30;4.90;;;230.70;2252.80;;;;;;5136141;27;19907;-77
2021/10/24 02:12:59;;;;;;;12.15;3.88;;;230.70;2252.80;;;;;;5118080;27;20043;-83
2021/10/24 02:15:25;;;;;;;7.35;3.95;;;230.60;2252.80;;;;;;5136189;27;20487;-81
2021/10/24 02:17:51;;;;;;;10.02;3.97;;;230.70;2252.80;;;;;;5135742;27;20016;-82
2021/10/24 02:20:17;;;;;;;;;;;230.60;2252.80;;;;;;5136520;27;20380;-81
2021/10/24 02:22:42;;;;;;;13.10;3.95;;;230.70;2252.80;;;;;;5135442;27;19964;-80
2021/10/24 02:25:08;;;;;;;;;;;230.60;2252.80;;;;;;5136352;27;20026;-82
2021/10/24 02:27:34;;;;;;;12.13;3.67;;;230.60;2252.80;;;;;;5117657;27;19904;-80
2021/10/24 02:30:00;;;;;;;;;;;230.60;2252.80;;;;;;5136094;27;20094;-83
2021/10/24 02:32:26;;;;;;;7.65;3.80;;;230.60;2252.80;;;;;;5135930;27;19953;-83
2021/10/24 02:34:51;;;;;;;;;;;230.60;2252.80;;;;;;5136219;27;20035;-80
2021/10/24 02:37:17;;;;;;;6.55;3.88;;;230.60;2252.80;;;;;;5117847;27;19908;-79
2021/10/24 02:39:43;;;;;;;;;;;230.60;2252.80;;;;;;5117558;27;20019;-79
2021/10/24 02:42:09;;;;;;;7.75;4.10;;;230.60;2252.80;;;;;;5134959;27;20352;-76
2021/10/24 02:44:35;;;;;;;;;;;230.60;2252.80;;;;;;5135744;27;20043;-75
2021/10/24 02:47:00;;;;;;;8.63;3.70;;;230.50;2252.80;;;;;;5135730;27;20352;-82
2021/10/24 02:49:26;;;;;;;;;;;230.40;2252.80;;;;;;5135855;27;20083;-82
2021/10/24 02:51:53;;;;;;;8.93;4.28;;;230.40;2252.80;;;;;;5135425;27;19946;-79
2021/10/24 02:54:19;;;;;;;10.82;3.88;;;230.50;2252.80;;;;;;5118051;27;20019;-77
2021/10/24 02:56:45;;;;;;;10.60;3.70;;;230.40;2252.80;;;;;;5117491;27;20028;-82
2021/10/24 02:59:11;;;;;;;15.93;4.70;;;230.40;2252.80;;;;;;5108162;27;20969;-81
2021/10/24 03:01:37;;;;;;;8.73;4.00;;;205.70;2252.80;;;;;;5107212;27;20019;-74
2021/10/24 03:04:03;;;;;;;;;;;205.50;2252.80;;;;;;5132761;27;20034;-75
2021/10/24 03:06:32;;;;;;;11.43;3.77;;;205.60;2252.80;;;;;;5134689;27;19907;-76
2021/10/24 03:08:58;;;;;;;11.43;4.10;;;205.70;2252.80;;;;;;5114603;27;20319;-74
2021/10/24 03:11:27;;;;;;;9.20;5.10;;;205.50;2252.80;;;;;;5115420;27;20043;-75
2021/10/24 03:13:56;;;;;;;12.45;4.88;;;205.40;2252.80;;;;;;5133858;27;20066;-75
2021/10/24 03:16:25;;;;;;;11.82;4.70;;;205.40;2252.80;;;;;;5113460;27;20027;-76
2021/10/24 03:18:51;;;;;;;13.75;5.22;;;205.50;2252.80;;;;;;5114966;27;20475;-75
2021/10/24 03:21:17;;;;;;;16.35;4.85;;;205.40;2252.80;;;;;;5133289;27;20023;-80
2021/10/24 03:23:42;;;;;;;;;;;205.40;2252.80;;;;;;5115648;27;20494;-74
2021/10/24 03:26:08;;;;;;;9.70;5.28;;;205.40;2252.80;;;;;;5133555;27;19956;-77
2021/10/24 03:28:34;;;;;;;;;;;205.20;2252.80;;;;;;5133256;27;20071;-79
2021/10/24 03:31:03;;;;;;;12.43;4.32;;;205.10;2252.80;;;;;;5115145;27;19908;-76
2021/10/24 03:33:29;;;;;;;12.57;4.60;;;205.00;2252.80;;;;;;5114943;27;20121;-76
2021/10/24 03:35:55;;;;;;;;;;;205.00;2252.80;;;;;;5133664;27;20019;-81
2021/10/24 03:38:25;;;;;;;14.88;4.60;;;204.90;2252.80;;;;;;5133432;27;19915;-76
2021/10/24 03:40:51;;;;;;;7.28;3.83;;;204.80;2252.80;;;;;;5133440;27;20031;-75
2021/10/24 03:43:16;;;;;;;8.45;3.85;;;204.80;2252.80;;;;;;5132688;27;20034;-75
2021/10/24 03:45:42;;;;;;;;;;;180.00;2252.80;;;;;;5133295;27;20380;-75
2021/10/24 03:48:08;;;;;;;7.57;3.67;;;180.00;2252.80;;;;;;5128160;27;20300;-76
2021/10/24 03:50:33;;;;;;;;;;;180.00;2252.80;;;;;;5102587;27;20476;-78
2021/10/24 03:52:59;;;;;;;15.00;4.38;;;180.00;2252.80;;;;;;5134081;27;20400;-80
2021/10/24 03:55:25;;;;;;;;;;;179.90;2252.80;;;;;;5116289;27;20096;-80
2021/10/24 03:57:51;;;;;;;7.53;3.35;;;179.90;2252.80;;;;;;5115649;27;19996;-78
2021/10/24 04:00:16;;;;;;;;;;;179.80;2252.80;;;;;;5116028;27;20027;-80
2021/10/24 04:03:00;;;;;;;11.40;4.93;;;179.80;2252.80;;;;;;5115900;27;19950;-79
2021/10/24 04:05:27;;;;;;;13.15;4.50;;;179.80;2252.80;;;;;;5113997;27;20027;-81
2021/10/24 04:07:54;;;;;;;7.85;4.22;;;179.80;2252.80;;;;;;5115673;27;20038;-80
2021/10/24 04:10:22;;;;;;;12.93;5.00;;;179.90;2252.80;;;;;;5130848;27;20026;-83
2021/10/24 04:12:49;;;;;;;11.45;4.55;;;180.00;2252.80;;;;;;5131901;27;20378;-83
2021/10/24 04:15:16;;;;;;;11.90;4.57;;;180.10;2252.80;;;;;;5103908;27;20027;-77
2021/10/24 04:17:42;;;;;;;9.75;4.75;;;180.00;2252.80;;;;;;5134280;27;20015;-78
2021/10/24 04:20:09;;;;;;;;;;;179.90;2252.80;;;;;;5134601;28;20447;-81
2021/10/24 04:22:35;;;;;;;;;;;179.70;2252.80;;;;;;5113010;28;19926;-81
2021/10/24 04:25:01;;;;;;;12.27;4.00;;;179.60;2252.80;;;;;;5115314;28;19903;-83
2021/10/24 04:27:27;;;;;;;;;;;179.50;2252.80;;;;;;5114484;28;20098;-75
2021/10/24 04:29:53;;;;;;;7.72;3.70;;;179.50;2252.80;;;;;;5121682;28;19946;-82
2021/10/24 04:32:18;;;;;;;;;;;179.30;2252.80;;;;;;5116327;28;20011;-83
2021/10/24 04:34:44;;;;;;;9.80;4.10;;;179.50;2252.80;;;;;;5133658;28;20333;-78
2021/10/24 04:37:09;;;;;;;;;;;179.40;2252.80;;;;;;5134275;28;20015;-80
2021/10/24 04:39:35;;;;;;;12.38;3.40;;;179.40;2252.80;;;;;;5115607;27;20652;-76
2021/10/24 04:42:01;;;;;;;;;;;179.40;2252.80;;;;;;5133989;28;20031;-83
2021/10/24 04:44:27;;;;;;;7.38;3.95;;;179.40;2252.80;;;;;;5133668;27;19918;-81
2021/10/24 04:46:52;;;;;;;;;;;179.50;2252.80;;;;;;5116220;28;20023;-75
2021/10/24 04:49:19;;;;;;;8.45;3.53;;;179.50;2252.80;;;;;;5133546;28;19910;-83
2021/10/24 04:51:45;;;;;;;8.30;3.90;;;179.40;2252.80;;;;;;5134000;28;20019;-79
2021/10/24 04:54:10;;;;;;;;;;;179.40;2252.80;;;;;;5134016;28;20069;-83
2021/10/24 04:56:36;;;;;;;11.95;4.75;;;179.50;2252.80;;;;;;5133674;28;19912;-79
2021/10/24 04:59:02;;;;;;;;;;;179.50;2252.80;;;;;;5133617;28;20480;-84
2021/10/24 05:01:27;;;;;;;8.43;4.60;;;179.50;2252.80;;;;;;5133294;27;20288;-81
2021/10/24 05:03:53;;;;;;;;;;;179.50;2252.80;;;;;;5133696;28;20031;-77
2021/10/24 05:06:19;;;;;;;12.38;5.90;;;179.50;2252.80;;;;;;5133347;28;19918;-82
2021/10/24 05:08:44;;;;;;;;;;;179.60;2252.80;;;;;;5134233;28;20055;-83
2021/10/24 05:11:10;;;;;;;10.60;4.80;;;179.50;2252.80;;;;;;5115149;27;20002;-83
2021/10/24 05:13:36;;;;;;;;;;;179.40;2252.80;;;;;;5133985;28;20031;-82
2021/10/24 05:16:01;;;;;;;17.73;6.47;;;179.30;2252.80;;;;;;5130837;27;19910;-83
2021/10/24 05:18:27;;;;;;;;;;;179.30;2252.80;;;;;;5115489;28;20061;-82
2021/10/24 05:20:53;;;;;;;19.25;9.60;;;179.30;2252.80;;;;;;5115004;28;19904;-81
2021/10/24 05:23:18;;;;;;;;;;;179.40;2252.80;;;;;;5118892;27;20023;-82
2021/10/24 05:25:44;;;;;;;69.72;33.10;;;179.40;2252.80;;;;;;5119063;27;19954;-77
2021/10/24 05:28:10;;;;;;;;;;;179.40;2252.80;;;;;;5137489;27;20023;-82
2021/10/24 05:30:35;;;;;;;23.70;14.55;;;179.40;2252.80;;;;;;5118784;27;20274;-83
2021/10/24 05:33:01;;;;;;;;;;;179.40;2252.80;;;;;;5137490;27;20019;-75
2021/10/24 05:35:27;;;;;;;23.08;13.52;;;179.40;2252.80;;;;;;5136970;27;19903;-81
2021/10/24 05:37:53;;;;;;;;;;;179.50;2252.80;;;;;;5137088;27;20484;-75
2021/10/24 05:40:19;;;;;;;22.30;10.73;;;179.50;2252.80;;;;;;5136213;27;19952;-79
2021/10/24 05:42:44;;;;;;;;;;;179.50;2252.80;;;;;;5135620;27;20035;-79
2021/10/24 05:45:10;;;;;;;15.10;7.82;;;179.50;2252.80;;;;;;5117620;27;19907;-76
2021/10/24 05:47:35;;;;;;;;;;;179.50;2252.80;;;;;;5117982;27;20083;-81
2021/10/24 05:50:01;;;;;;;16.17;6.70;;;179.50;2252.80;;;;;;5135949;27;19972;-80
2021/10/24 05:52:27;;;;;;;;;;;179.50;2252.80;;;;;;5136562;27;20027;-82
2021/10/24 05:54:53;;;;;;;16.27;7.47;;;179.60;2252.80;;;;;;5136964;27;19933;-81
2021/10/24 05:57:19;;;;;;;;;;;179.70;2252.80;;;;;;5136737;27;20019;-75
2021/10/24 05:59:44;;;;;;;13.38;7.30;;;179.70;2252.80;;;;;;5136267;27;19910;-74
2021/10/24 06:02:10;;;;;;;;;;;179.70;2252.80;;;;;;5136320;27;20372;-75
2021/10/24 06:04:36;;;;;;;16.85;7.50;;;179.90;2252.80;;;;;;5117824;27;20364;-75
2021/10/24 06:07:03;;;;;;;15.80;8.40;;;179.90;2252.80;;;;;;5135674;27;20019;-75
2021/10/24 06:09:39;;;;;;;21.08;7.72;;;180.00;2252.80;;;;;;5135923;27;20027;-75
2021/10/24 06:12:05;;;;;;;15.90;5.50;;;179.90;2252.80;;;;;;5131409;27;20441;-75
2021/10/24 06:14:31;;;;;;;17.25;7.35;;;179.90;2252.80;;;;;;5121079;27;20031;-77
2021/10/24 06:16:58;;;;;;;;;;;180.00;2252.80;;;;;;5118041;27;20019;-77
2021/10/24 06:19:23;;;;;;;14.63;8.23;;;180.10;2252.80;;;;;;5102950;27;19947;-75
2021/10/24 06:21:49;;;;;;;;;;;180.10;2252.80;;;;;;5117947;27;20550;-74
2021/10/24 06:24:15;;;;;;;23.33;11.60;;;180.10;2252.80;;;;;;5117237;27;19918;-74
2021/10/24 06:26:43;;;;;;;;;;;179.80;2252.80;;;;;;5117567;27;20054;-77
2021/10/24 06:29:09;;;;;;;19.42;7.90;;;179.70;2252.80;;;;;;5106661;28;19907;-75
2021/10/24 06:31:34;;;;;;;;;;;180.00;2252.80;;;;;;5132190;27;20418;-75
2021/10/24 06:34:00;;;;;;;19.67;7.65;;;180.10;2252.80;;;;;;5116897;27;19955;-75
2021/10/24 06:36:25;;;;;;;;;;;204.80;2252.80;;;;;;5135980;27;20106;-75
2021/10/24 06:38:51;;;;;;;17.27;8.20;;;204.80;2252.80;;;;;;5135440;27;19904;-75
2021/10/24 06:41:17;;;;;;;;;;;205.00;2252.80;;;;;;5135715;27;20027;-80
2021/10/24 06:43:42;;;;;;;17.52;9.05;;;204.90;2252.80;;;;;;5116820;27;19919;-76
2021/10/24 06:46:08;;;;;;;;;;;205.00;2252.80;;;;;;5117402;27;20385;-76
2021/10/24 06:48:34;;;;;;;19.60;7.85;;;205.10;2252.80;;;;;;5116817;27;19954;-75
2021/10/24 06:50:59;;;;;;;;;;;205.10;2252.80;;;;;;5117430;27;20077;-83
2021/10/24 06:53:25;;;;;;;17.88;8.65;;;205.20;2252.80;;;;;;5116317;27;19953;-75
2021/10/24 06:55:51;;;;;;;;;;;205.30;2252.80;;;;;;5116968;27;20038;-74
2021/10/24 06:58:16;;;;;;;24.52;11.50;;;205.20;2252.80;;;;;;5111652;27;19915;-75
2021/10/24 07:00:43;;;;;;;;;;;205.20;2252.80;;;;;;5130242;27;20015;-80
2021/10/24 07:03:08;;;;;;;21.33;11.77;;;205.20;2252.80;;;;;;5111056;27;19918;-78
2021/10/24 07:05:36;;;;;;;;;;;205.30;2252.80;;;;;;5130133;27;20019;-75
2021/10/24 07:08:02;;;;;;;23.15;9.52;;;205.30;2252.80;;;;;;5129930;27;19907;-77
2021/10/24 07:10:28;;;;;;;;;;;205.30;2252.80;;;;;;5129758;27;20035;-75
2021/10/24 07:12:53;;;;;;;20.13;9.75;;;205.40;2252.80;;;;;;5101983;28;19927;-75
2021/10/24 07:15:20;;;;;;;;;;;205.40;2252.80;;;;;;5084856;28;20400;-76
2021/10/24 07:17:46;;;;;;;21.42;6.60;;;205.50;2252.80;;;;;;5113782;28;19914;-75
2021/10/24 07:20:12;;;;;;;;;;;205.50;2252.80;;;;;;5114007;28;20016;-75
2021/10/24 07:22:38;;;;;;;14.45;8.48;;;205.70;2252.80;;;;;;5113728;28;19918;-77
2021/10/24 07:25:04;;;;;;;;;;;205.70;2252.80;;;;;;5114012;28;20027;-75
2021/10/24 07:27:30;;;;;;;19.77;7.35;;;205.70;2252.80;;;;;;5113370;28;19930;-75
2021/10/24 07:29:56;;;;;;;13.45;8.40;;;230.40;2252.80;;;;;;5114107;28;20032;-81
2021/10/24 07:32:22;;;;;;;;;;;230.40;2252.80;;;;;;5112085;28;20057;-83
2021/10/24 07:34:49;;;;;;;19.20;9.68;;;230.50;2252.80;;;;;;5099017;27;19903;-83
2021/10/24 07:37:14;;;;;;;17.80;10.23;;;230.60;2252.80;;;;;;5085531;28;20102;-76
2021/10/24 07:39:40;;;;;;;;;;;230.60;2252.80;;;;;;5096079;28;20111;-82
2021/10/24 07:42:06;;;;;;;28.85;10.48;;;230.70;2252.80;;;;;;5113528;28;20369;-82
2021/10/24 07:44:32;;;;;;;19.80;9.15;;;230.70;2252.80;;;;;;5085534;28;20039;-75
2021/10/24 07:46:58;;;;;;;;;;;230.70;2252.80;;;;;;5081210;28;20016;-84
2021/10/24 07:49:27;;;;;;;25.88;9.93;;;230.70;2252.80;;;;;;5097896;28;19918;-83
2021/10/24 07:51:53;;;;;;;21.95;9.30;;;230.70;2252.80;;;;;;5113702;28;20071;-77
2021/10/24 07:54:19;;;;;;;18.38;9.90;;;230.80;2252.80;;;;;;5121723;27;20060;-83
2021/10/24 07:56:45;;;;;;;;;;;230.90;2252.80;;;;;;5114833;27;20020;-82
2021/10/24 07:59:12;;;;;;;17.05;9.13;;;230.80;2252.80;;;;;;5112989;28;19933;-76
2021/10/24 08:01:38;;;;;;;18.30;10.27;;;230.90;2252.80;;;;;;5102238;28;20101;-75
2021/10/24 08:04:07;;;;;;;30.42;14.45;;;230.90;2252.80;;;;;;5113623;28;20069;-80
2021/10/24 08:06:33;;;;;;;22.42;11.38;;;230.90;2252.80;;;;;;5103004;28;20827;-74
2021/10/24 08:09:05;;;;;;;21.15;9.88;;;231.00;2252.80;;;;;;5113075;28;20389;-79
2021/10/24 08:11:30;;;;;;;18.25;9.30;;;230.90;2252.80;;;;;;5103749;27;20074;-81
2021/10/24 08:13:59;;;;;;;22.67;9.40;;;231.00;2252.80;;;;;;5133773;27;20049;-78
2021/10/24 08:16:24;;;;;;;26.45;13.10;;;231.10;2252.80;;;;;;5115017;28;20063;-80
2021/10/24 08:18:50;;;;;;;;;;;231.10;2252.80;;;;;;5134737;27;20570;-81
2021/10/24 08:21:16;;;;;;;26.13;12.05;;;231.20;2252.80;;;;;;5133936;28;19903;-79
2021/10/24 08:23:43;;;;;;;28.75;13.13;;;231.20;2252.80;;;;;;5133862;28;20061;-79
2021/10/24 08:26:10;;;;;;;21.92;12.10;;;231.30;2252.80;;;;;;5134695;28;20099;-79
2021/10/24 08:28:36;;;;;;;33.97;13.63;;;231.30;2252.80;;;;;;5133249;28;20019;-80
2021/10/24 08:31:03;;;;;;;19.58;9.30;;;231.30;2252.80;;;;;;5133769;28;20069;-76
2021/10/24 08:33:30;;;;;;;19.75;10.30;;;256.00;2252.80;;;;;;5132804;28;20019;-78
2021/10/24 08:35:59;;;;;;;21.33;9.52;;;231.30;2252.80;;;;;;5132927;28;20058;-76
2021/10/24 08:38:27;;;;;;;19.95;9.05;;;256.10;2252.80;;;;;;5114240;28;20035;-75
2021/10/24 08:40:53;;;;;;;22.38;8.65;;;256.20;2252.80;;;;;;5114361;28;20055;-76
2021/10/24 08:43:31;;;;;;;15.65;7.68;;;256.30;2252.80;;;;;;5114246;28;20501;-77
2021/10/24 08:45:57;;;;;;;14.95;7.03;;;256.30;2252.80;;;;;;5115030;28;20027;-76
2021/10/24 08:48:23;;;;;;;20.50;9.32;;;256.40;2252.80;;;;;;5114612;28;20027;-76
2021/10/24 08:50:50;;;;;;;15.35;8.07;;;256.50;2252.80;;;;;;5114624;28;20023;-75
2021/10/24 08:53:25;;;;;;;15.43;7.35;;;256.50;2252.80;;;;;;5115133;28;20019;-76
2021/10/24 08:55:51;;;;;;;10.48;6.60;;;256.70;2252.80;;;;;;5121067;27;20027;-76
2021/10/24 08:58:18;;;;;;;15.82;6.95;;;256.80;2252.80;;;;;;5136999;27;20103;-75
2021/10/24 09:00:44;;;;;;;14.15;6.65;;;281.90;2278.40;;;;;;5136632;27;20440;-77
2021/10/24 09:03:10;;;;;;;11.32;6.65;;;281.70;2278.40;;;;;;5136939;27;20465;-75
2021/10/24 09:05:42;;;;;;;17.85;7.53;;;281.80;2278.40;;;;;;5118945;27;20115;-76
2021/10/24 09:08:09;;;;;;;14.73;6.72;;;282.00;2278.40;;;;;;5115363;28;20039;-78
2021/10/24 09:10:40;;;;;;;15.38;7.28;;;282.10;2278.40;;;;;;5114112;27;20019;-80
2021/10/24 09:13:11;;;;;;;17.63;8.63;;;282.20;2278.40;;;;;;5103446;28;20086;-76
2021/10/24 09:15:52;;;;;;;17.67;8.65;;;282.40;2278.40;;;;;;5109926;27;20030;-76
2021/10/24 09:18:21;;;;;;;19.42;8.25;;;282.50;2278.40;;;;;;5118690;27;20444;-80
2021/10/24 09:20:47;;;;;;;13.05;6.63;;;307.20;2304.00;;;;;;5136839;27;20095;-77
2021/10/24 09:23:15;;;;;;;14.73;5.95;;;307.30;2304.00;;;;;;5136670;27;20551;-76
2021/10/24 09:25:54;;;;;;;11.35;6.03;;;307.60;2304.00;;;;;;5128943;27;20016;-75
2021/10/24 09:28:22;;;;;;;12.73;5.38;;;307.70;2304.00;;;;;;5116017;27;20069;-78
2021/10/24 09:30:58;;;;;;;14.15;6.20;;;307.80;2304.00;;;;;;5136682;27;20023;-79
2021/10/24 09:33:24;;;;;;;12.23;5.43;;;308.00;2304.00;;;;;;5118468;27;20023;-80
2021/10/24 09:35:50;;;;;;;8.25;3.97;;;308.10;2304.00;;;;;;5118407;27;20027;-78
2021/10/24 09:38:24;;;;;;;14.15;3.95;;;332.90;2304.00;;;;;;5116704;27;20375;-78
2021/10/24 09:40:54;;;;;;;9.88;4.00;;;333.10;2304.00;;;;;;5117998;27;20022;-78
2021/10/24 09:43:31;;;;;;;11.88;5.30;;;333.30;2252.80;;;;;;5118074;27;20050;-78
2021/10/24 09:45:57;;;;;;;9.75;3.13;;;333.50;2201.60;;;;;;5117467;27;20103;-78
2021/10/24 09:48:26;;;;;;;11.85;4.35;;;333.60;2150.40;;;;;;5136131;27;20472;-77
2021/10/24 09:50:54;;;;;;;12.10;4.22;;;333.70;2150.40;;;;;;5133808;27;20488;-77
2021/10/24 09:53:28;;;;;;;11.60;4.55;;;358.50;2124.80;;;;;;5117848;27;20459;-77
2021/10/24 09:55:57;;;;;;;13.70;4.65;;;358.60;2124.80;;;;;;5114706;27;20103;-77
2021/10/24 09:58:28;;;;;;;12.90;4.40;;;358.80;2176.00;;;;;;5112975;27;20039;-76
2021/10/24 10:00:54;;;;;;;10.20;4.68;;;358.90;2073.60;;;;;;5114196;28;20012;-77
2021/10/24 10:03:27;;;;;;;12.02;4.53;;;358.90;2099.20;;;;;;5117736;27;20031;-77
2021/10/24 10:05:57;;;;;;;8.68;3.90;;;359.10;2048.00;;;;;;5116550;27;20024;-76
2021/10/24 10:08:23;;;;;;;9.73;4.30;;;359.30;2022.40;;;;;;5116947;27;20089;-77
2021/10/24 10:11:00;;;;;;;10.82;4.50;;;384.10;2022.40;;;;;;5117421;27;20102;-77
2021/10/24 10:13:28;;;;;;;12.25;4.18;;;384.10;2048.00;;;;;;5136019;27;20135;-77
2021/10/24 10:16:01;;;;;;;16.58;7.85;;;384.40;2022.40;;;;;;5135452;27;20123;-77
2021/10/24 10:18:26;;;;;;;21.63;8.20;;;384.50;2048.00;;;;;;5117356;27;20027;-76
2021/10/24 10:20:53;;;;;;;9.00;4.80;;;384.70;1971.20;;;;;;5118246;27;20581;-77
2021/10/24 10:23:24;;;;;;;8.80;4.32;;;384.80;1945.60;;;;;;5135980;27;20392;-76
2021/10/24 10:25:50;;;;;;;11.55;6.00;;;384.90;1945.60;;;;;;5117282;27;20030;-76
2021/10/24 10:28:48;;;;;;;9.52;5.10;;;384.90;1945.60;;;;;;5135451;27;20061;-74
2021/10/24 10:31:14;;;;;;;;;;;409.80;1971.20;;;;;;5135571;27;20019;-76
2021/10/24 10:33:40;;;;;;;17.42;6.57;;;410.00;1945.60;;;;;;5135671;27;19911;-76
2021/10/24 10:36:08;;;;;;;12.85;6.85;;;410.00;1894.40;;;;;;5117034;27;20019;-78
2021/10/24 10:38:43;;;;;;;11.02;5.35;;;410.20;1894.40;;;;;;5135419;27;20060;-76
2021/10/24 10:41:11;;;;;;;9.10;5.30;;;410.30;1945.60;;;;;;5117032;27;20093;-77
2021/10/24 10:43:37;;;;;;;10.30;6.40;;;410.30;1920.00;;;;;;5117197;27;20385;-77
2021/10/24 10:46:05;;;;;;;15.32;5.90;;;435.20;1920.00;;;;;;5135153;27;20064;-77
2021/10/24 10:48:46;;;;;;;14.80;5.18;;;435.30;1843.20;;;;;;5114419;27;20049;-77
2021/10/24 10:51:22;;;;;;;10.13;4.43;;;435.50;1868.80;;;;;;5116803;27;20440;-78
2021/10/24 10:53:59;;;;;;;7.53;4.25;;;435.40;1843.20;;;;;;5135441;27;20023;-76
2021/10/24 10:56:26;;;;;;;7.68;4.28;;;435.40;1843.20;;;;;;5117123;27;20026;-76
2021/10/24 10:58:57;;;;;;;8.07;3.65;;;435.60;1792.00;;;;;;5135338;27;20035;-77
2021/10/24 11:01:25;;;;;;;8.10;4.85;;;435.80;1740.80;;;;;;5135479;27;20035;-76
2021/10/24 11:04:00;;;;;;;15.02;4.30;;;436.00;1689.60;;;;;;5134920;27;20031;-76
2021/10/24 11:06:26;;;;;;;7.70;4.00;;;436.10;1740.80;;;;;;5134834;27;20053;-77
2021/10/24 11:08:55;;;;;;;11.90;4.60;;;461.10;1766.40;;;;;;5116375;27;20050;-75
2021/10/24 11:11:40;;;;;;;20.67;4.30;;;460.80;1817.60;;;;;;5116247;27;20035;-78
2021/10/24 11:14:12;;;;;;;7.72;3.85;;;461.10;1792.00;;;;;;5130622;27;20016;-78
2021/10/24 11:16:51;;;;;;;10.93;4.50;;;461.10;1766.40;;;;;;5116227;27;20146;-77
2021/10/24 11:22:19;;;;;;;8.73;4.47;;;461.20;1715.20;;;;;;5121427;27;20047;-81
2021/10/24 11:24:45;;;;;;;7.13;3.55;;;461.40;1715.20;;;;;;5121444;27;20042;-78
2021/10/24 11:27:18;;;;;;;5.97;3.42;;;461.40;1689.60;;;;;;5115569;27;20023;-77
2021/10/24 11:29:57;;;;;;;10.05;4.38;;;461.50;1638.40;;;;;;5130889;27;20019;-77
2021/10/24 11:32:26;;;;;;;11.93;4.10;;;461.60;1638.40;;;;;;5111535;27;20027;-77
2021/10/24 11:34:57;;;;;;;8.15;3.60;;;461.70;1612.80;;;;;;5134170;27;20019;-76
2021/10/24 11:37:50;;;;;;;7.30;3.97;;;461.60;1638.40;;;;;;5103824;27;20563;-78
2021/10/24 11:40:31;;;;;;;11.20;3.95;;;461.70;1638.40;;;;;;5111210;27;20031;-79
2021/10/24 11:43:12;;;;;;;7.70;3.67;;;486.60;1638.40;;;;;;5105806;27;20027;-79
2021/10/24 11:45:48;;;;;;;10.40;5.32;;;486.50;1536.00;;;;;;5113615;27;20027;-81
2021/10/24 11:48:26;;;;;;;11.18;3.97;;;486.50;1561.60;;;;;;5098574;28;20024;-83
2021/10/24 11:51:00;;;;;;;9.90;3.92;;;486.50;1561.60;;;;;;5098390;27;20028;-79
2021/10/24 11:53:30;;;;;;;9.90;3.80;;;486.50;1536.00;;;;;;5097226;28;20045;-78
2021/10/24 11:55:59;;;;;;;10.98;4.60;;;486.50;1510.40;;;;;;5102360;28;20102;-80
2021/10/24 11:58:43;;;;;;;9.52;3.83;;;486.60;1536.00;;;;;;5113575;27;20376;-77
2021/10/24 12:01:29;;;;;;;11.10;3.45;;;486.40;1484.80;;;;;;5114170;27;20023;-79
2021/10/24 12:04:13;;;;;;;7.55;4.28;;;461.70;1484.80;;;;;;5112781;28;20038;-82
2021/10/24 12:06:51;;;;;;;7.50;3.60;;;486.50;1408.00;;;;;;5131982;27;20035;-78
2021/10/24 12:09:28;;;;;;;8.15;3.30;;;461.40;1510.40;;;;;;5122059;27;20024;-78
2021/10/24 12:12:05;;;;;;;10.18;5.03;;;461.60;1510.40;;;;;;5114923;28;20051;-79
2021/10/24 12:14:30;;;;;;;;;;;461.70;1510.40;;;;;;5115860;27;20039;-83
2021/10/24 12:16:57;;;;;;;5.88;3.42;;;461.50;1459.20;;;;;;5115299;28;19904;-78
2021/10/24 12:19:29;;;;;;;10.05;5.00;;;461.20;1536.00;;;;;;5131221;28;20144;-76
2021/10/24 12:22:06;;;;;;;13.45;5.35;;;461.50;1536.00;;;;;;5113308;28;20149;-77
2021/10/24 12:24:50;;;;;;;10.55;4.57;;;461.50;1561.60;;;;;;5107086;28;20438;-83
2021/10/24 12:27:30;;;;;;;8.00;5.22;;;461.60;1536.00;;;;;;5106038;28;20027;-79
2021/10/24 12:29:59;;;;;;;6.97;3.50;;;461.60;1536.00;;;;;;5106787;27;20102;-78
2021/10/24 12:32:25;;;;;;;9.30;3.03;;;461.40;1536.00;;;;;;5129180;27;20073;-82
2021/10/24 12:35:09;;;;;;;5.80;3.45;;;461.40;1484.80;;;;;;5114965;27;20015;-77